createdAt,value
2018-08-11T00:01:18.240Z,2.23
2018-08-11T00:03:46.965Z,2.30
2018-08-11T00:06:15.605Z,2.13
2018-08-11T00:08:44.321Z,1.97
2018-08-11T00:11:13.016Z,2.27
2018-08-11T00:13:41.931Z,2.17
2018-08-11T00:16:10.597Z,2.03
2018-08-11T00:18:39.281Z,2.40
2018-08-11T00:21:08.013Z,2.30
2018-08-11T00:23:36.710Z,2.27
2018-08-11T00:26:05.861Z,2.23
2018-08-11T00:28:34.548Z,2.80
2018-08-11T00:31:03.614Z,2.33
2018-08-11T00:33:32.243Z,2.23
2018-08-11T00:36:01.863Z,2.40
2018-08-11T00:38:30.553Z,2.87
2018-08-11T00:40:59.289Z,2.83
2018-08-11T00:43:27.933Z,2.73
2018-08-11T00:45:56.601Z,2.67
2018-08-11T00:48:25.281Z,3.07
2018-08-11T00:50:53.981Z,2.90
2018-08-11T00:53:22.653Z,2.80
2018-08-11T00:55:51.373Z,3.23
2018-08-11T00:58:20.016Z,3.13
2018-08-11T01:00:48.708Z,3.73
2018-08-11T01:03:17.413Z,3.40
2018-08-11T01:05:46.063Z,3.17
2018-08-11T01:08:14.720Z,3.50
2018-08-11T01:10:43.374Z,3.97
2018-08-11T01:13:12.056Z,3.00
2018-08-11T01:15:40.704Z,3.27
2018-08-11T01:18:09.445Z,3.60
2018-08-11T01:20:38.128Z,3.67
2018-08-11T01:23:06.916Z,3.70
2018-08-11T01:25:35.576Z,3.63
2018-08-11T01:28:04.230Z,3.90
2018-08-11T01:30:33.380Z,4.17
2018-08-11T01:33:02.433Z,4.00
2018-08-11T01:35:31.220Z,4.13
2018-08-11T01:37:59.885Z,4.33
2018-08-11T01:40:28.563Z,4.50
2018-08-11T01:42:57.297Z,4.13
2018-08-11T01:45:26.014Z,4.00
2018-08-11T01:47:54.709Z,4.40
2018-08-11T01:50:23.342Z,4.00
2018-08-11T01:52:52.025Z,4.40
2018-08-11T01:55:20.688Z,4.40
2018-08-11T01:57:49.408Z,4.70
2018-08-11T02:00:18.430Z,4.80
2018-08-11T02:02:47.103Z,5.03
2018-08-11T02:05:15.798Z,5.40
2018-08-11T02:07:45.300Z,5.77
2018-08-11T02:10:16.385Z,5.37
2018-08-11T02:12:45.577Z,5.40
2018-08-11T02:15:14.729Z,5.90
2018-08-11T02:17:43.469Z,5.60
2018-08-11T02:20:16.975Z,5.17
2018-08-11T02:22:46.429Z,5.77
2018-08-11T02:25:15.225Z,6.87
2018-08-11T02:27:43.913Z,5.93
2018-08-11T02:30:14.904Z,6.23
2018-08-11T02:32:43.599Z,6.77
2018-08-11T02:35:12.845Z,6.47
2018-08-11T02:37:41.942Z,6.37
2018-08-11T02:40:12.131Z,6.47
2018-08-11T02:42:40.917Z,5.83
2018-08-11T02:45:11.184Z,6.13
2018-08-11T02:47:39.985Z,6.27
2018-08-11T02:50:10.156Z,6.73
2018-08-11T02:52:39.571Z,6.67
2018-08-11T02:55:08.269Z,7.13
2018-08-11T02:57:36.970Z,7.30
2018-08-11T03:00:07.430Z,7.60
2018-08-11T03:02:36.373Z,6.90
2018-08-11T03:05:05.055Z,6.97
2018-08-11T03:07:33.809Z,6.80
2018-08-11T03:10:02.541Z,8.17
2018-08-11T03:12:31.180Z,6.20
2018-08-11T03:14:59.829Z,6.47
2018-08-11T03:17:28.544Z,6.13
2018-08-11T03:19:57.168Z,6.87
2018-08-11T03:22:25.866Z,6.17
2018-08-11T03:24:54.496Z,6.40
2018-08-11T03:27:23.213Z,7.20
2018-08-11T03:29:51.896Z,7.33
2018-08-11T03:32:20.536Z,7.50
2018-08-11T03:34:49.165Z,7.90
2018-08-11T03:37:17.837Z,7.77
2018-08-11T03:39:46.524Z,7.90
2018-08-11T03:42:15.152Z,8.07
2018-08-11T03:44:43.829Z,7.80
2018-08-11T03:47:12.484Z,7.63
2018-08-11T03:49:41.210Z,7.80
2018-08-11T03:52:09.846Z,8.00
2018-08-11T03:54:38.519Z,8.27
2018-08-11T03:57:07.226Z,7.63
2018-08-11T03:59:35.909Z,8.37
2018-08-11T04:02:04.718Z,9.10
2018-08-11T04:04:33.360Z,8.13
2018-08-11T04:07:04.202Z,8.47
2018-08-11T04:09:32.809Z,8.27
2018-08-11T04:12:02.416Z,8.63
2018-08-11T04:14:31.126Z,8.37
2018-08-11T04:16:59.846Z,8.27
2018-08-11T04:19:28.485Z,8.43
2018-08-11T04:21:57.113Z,8.40
2018-08-11T04:24:25.780Z,8.07
2018-08-11T04:26:54.413Z,7.80
2018-08-11T04:29:23.085Z,8.60
2018-08-11T04:31:51.725Z,7.77
2018-08-11T04:34:20.411Z,8.33
2018-08-11T04:36:49.436Z,8.97
2018-08-11T04:39:18.122Z,7.87
2018-08-11T04:41:46.779Z,7.23
2018-08-11T04:44:15.505Z,8.53
2018-08-11T04:46:44.223Z,7.90
2018-08-11T04:49:12.926Z,8.07
2018-08-11T04:51:41.589Z,8.03
2018-08-11T04:54:10.225Z,8.17
2018-08-11T04:56:38.907Z,8.30
2018-08-11T04:59:08.161Z,8.23
2018-08-11T05:01:36.804Z,7.83
2018-08-11T05:04:05.458Z,7.97
2018-08-11T05:06:34.081Z,7.27
2018-08-11T05:09:04.733Z,7.20
2018-08-11T05:11:33.370Z,7.07
2018-08-11T05:14:02.435Z,7.17
2018-08-11T05:16:31.057Z,7.50
2018-08-11T05:18:59.693Z,6.87
2018-08-11T05:21:28.502Z,7.17
2018-08-11T05:23:57.113Z,7.50
2018-08-11T05:26:25.809Z,7.13
2018-08-11T05:28:54.485Z,7.00
2018-08-11T05:31:23.151Z,7.83
2018-08-11T05:33:51.915Z,8.10
2018-08-11T05:36:20.578Z,6.90
2018-08-11T05:38:49.235Z,7.03
2018-08-11T05:41:18.278Z,6.37
2018-08-11T05:43:46.989Z,6.57
2018-08-11T05:46:15.666Z,6.20
2018-08-11T05:48:44.377Z,6.17
2018-08-11T05:51:13.070Z,6.27
2018-08-11T05:53:41.751Z,6.30
2018-08-11T05:56:10.505Z,5.57
2018-08-11T05:58:39.160Z,6.20
2018-08-11T06:01:07.865Z,6.30
2018-08-11T06:03:36.510Z,6.50
2018-08-11T06:06:05.183Z,5.73
2018-08-11T06:08:33.797Z,5.00
2018-08-11T06:11:02.461Z,5.50
2018-08-11T06:13:31.155Z,4.50
2018-08-11T06:15:59.793Z,4.63
2018-08-11T06:18:28.481Z,4.10
2018-08-11T06:20:57.097Z,4.27
2018-08-11T06:23:25.757Z,4.50
2018-08-11T06:25:54.461Z,5.00
2018-08-11T06:28:23.185Z,4.87
2018-08-11T06:30:51.871Z,4.00
2018-08-11T06:33:20.522Z,3.70
2018-08-11T06:35:49.340Z,3.53
2018-08-11T06:38:18.001Z,3.30
2018-08-11T06:40:46.715Z,2.70
2018-08-11T06:43:15.418Z,2.00
2018-08-11T06:45:44.107Z,2.17
2018-08-11T06:48:13.757Z,1.70
2018-08-11T06:50:42.443Z,1.60
2018-08-11T06:53:11.153Z,1.70
2018-08-11T06:55:40.707Z,1.83
2018-08-11T06:58:09.508Z,1.70
2018-08-11T07:00:38.118Z,1.70
2018-08-11T07:03:07.241Z,1.77
2018-08-11T07:05:35.910Z,1.70
2018-08-11T07:08:04.536Z,1.33
2018-08-11T07:10:34.209Z,1.40
2018-08-11T07:13:03.194Z,1.53
2018-08-11T07:15:31.856Z,1.40
2018-08-11T07:18:00.598Z,1.50
2018-08-11T07:20:29.244Z,1.20
2018-08-11T07:22:57.867Z,1.20
2018-08-11T07:25:26.492Z,1.50
2018-08-11T07:27:55.292Z,1.20
2018-08-11T07:30:23.901Z,1.20
2018-08-11T07:32:52.557Z,1.57
2018-08-11T07:35:21.769Z,1.07
2018-08-11T07:37:50.406Z,1.40
2018-08-11T07:40:19.230Z,1.33
2018-08-11T07:42:47.874Z,1.10
2018-08-11T07:45:16.621Z,1.40
2018-08-11T07:47:45.266Z,1.20
2018-08-11T07:50:13.953Z,1.67
2018-08-11T07:52:42.598Z,1.33
2018-08-11T07:55:11.224Z,1.27
2018-08-11T07:57:39.870Z,1.43
2018-08-11T08:00:10.088Z,2.13
2018-08-11T08:02:39.026Z,1.20
2018-08-11T08:05:07.798Z,1.60
2018-08-11T08:07:36.463Z,1.53
2018-08-11T08:10:05.792Z,1.10
2018-08-11T08:12:35.498Z,1.10
2018-08-11T08:15:04.980Z,1.17
2018-08-11T08:17:33.670Z,1.00
2018-08-11T08:20:02.770Z,1.20
2018-08-11T08:22:31.405Z,1.67
2018-08-11T08:25:00.083Z,1.20
2018-08-11T08:27:28.739Z,1.33
2018-08-11T08:29:57.349Z,1.33
2018-08-11T08:32:26.041Z,1.67
2018-08-11T08:34:54.674Z,2.10
2018-08-11T08:37:23.337Z,1.57
2018-08-11T08:39:51.937Z,1.70
2018-08-11T08:42:20.606Z,0.90
2018-08-11T08:44:49.387Z,1.70
2018-08-11T08:47:18.053Z,1.60
2018-08-11T08:49:46.693Z,1.73
2018-08-11T08:52:15.329Z,1.70
2018-08-11T08:54:43.935Z,1.37
2018-08-11T08:57:12.634Z,1.43
2018-08-11T08:59:41.345Z,1.50
2018-08-11T09:02:10.096Z,1.37
2018-08-11T09:04:38.758Z,1.50
2018-08-11T09:07:07.405Z,1.40
2018-08-11T09:09:36.081Z,1.10
2018-08-11T09:12:04.850Z,1.00
2018-08-11T09:14:33.465Z,1.30
2018-08-11T09:17:02.104Z,1.07
2018-08-11T09:19:30.826Z,1.10
2018-08-11T09:21:59.430Z,1.10
2018-08-11T09:24:28.108Z,1.07
2018-08-11T09:26:56.757Z,0.83
2018-08-11T09:29:25.471Z,1.00
2018-08-11T09:31:54.101Z,1.63
2018-08-11T09:34:22.780Z,1.57
2018-08-11T09:36:51.452Z,0.90
2018-08-11T09:39:20.085Z,1.37
2018-08-11T09:41:48.705Z,1.00
2018-08-11T09:44:17.362Z,1.00
2018-08-11T09:46:46.033Z,1.50
2018-08-11T09:49:14.673Z,1.30
2018-08-11T09:51:43.338Z,1.27
2018-08-11T09:54:12.005Z,1.17
2018-08-11T09:56:40.685Z,1.00
2018-08-11T09:59:10.229Z,1.10
2018-08-11T10:01:44.437Z,0.90
2018-08-11T10:04:13.293Z,1.37
2018-08-11T10:06:42.014Z,1.47
2018-08-11T10:09:12.165Z,1.10
2018-08-11T10:11:40.804Z,1.30
2018-08-11T10:14:09.540Z,1.27
2018-08-11T10:16:38.181Z,1.30
2018-08-11T10:19:07.087Z,1.43
2018-08-11T10:21:35.822Z,0.90
2018-08-11T10:24:04.496Z,1.67
2018-08-11T10:26:33.126Z,2.17
2018-08-11T10:29:01.982Z,1.57
2018-08-11T10:31:30.637Z,1.73
2018-08-11T10:33:59.343Z,1.27
2018-08-11T10:36:27.949Z,1.43
2018-08-11T10:38:56.697Z,1.33
2018-08-11T10:41:25.340Z,1.20
2018-08-11T10:43:54.004Z,1.10
2018-08-11T10:46:22.752Z,1.73
2018-08-11T10:48:51.405Z,1.23
2018-08-11T10:51:20.032Z,1.57
2018-08-11T10:53:48.689Z,0.87
2018-08-11T10:56:17.314Z,1.40
2018-08-11T10:58:45.988Z,2.27
2018-08-11T11:01:14.640Z,1.50
2018-08-11T11:03:43.381Z,1.40
2018-08-11T11:06:12.009Z,1.30
2018-08-11T11:08:40.791Z,1.53
2018-08-11T11:11:09.461Z,1.53
2018-08-11T11:13:38.157Z,1.50
2018-08-11T11:16:07.089Z,1.93
2018-08-11T11:18:36.037Z,1.90
2018-08-11T11:21:05.480Z,1.77
2018-08-11T11:23:37.233Z,1.50
2018-08-11T11:26:05.941Z,1.30
2018-08-11T11:28:34.580Z,1.60
2018-08-11T11:31:03.228Z,1.17
2018-08-11T11:33:31.941Z,1.40
2018-08-11T11:36:00.593Z,1.30
2018-08-11T11:38:29.286Z,1.70
2018-08-11T11:40:57.932Z,1.50
2018-08-11T11:43:26.551Z,1.43
2018-08-11T11:45:55.245Z,1.30
2018-08-11T11:48:23.937Z,1.50
2018-08-11T11:50:52.594Z,1.50
2018-08-11T11:53:21.218Z,1.27
2018-08-11T11:55:49.868Z,1.30
2018-08-11T11:58:18.462Z,1.60
2018-08-11T12:00:47.144Z,1.33
2018-08-11T12:03:15.763Z,1.20
2018-08-11T12:05:44.511Z,1.20
2018-08-11T12:08:13.097Z,1.43
2018-08-11T12:10:41.749Z,1.60
2018-08-11T12:13:10.394Z,1.40
2018-08-11T12:15:39.085Z,1.20
2018-08-11T12:18:07.700Z,1.03
2018-08-11T12:20:36.379Z,1.13
2018-08-11T12:23:05.220Z,1.23
2018-08-11T12:25:33.882Z,1.20
2018-08-11T12:28:02.521Z,1.53
2018-08-11T12:30:31.485Z,1.50
2018-08-11T12:33:00.126Z,1.27
2018-08-11T12:35:28.842Z,1.47
2018-08-11T12:37:57.497Z,1.07
2018-08-11T12:40:39.769Z,1.27
2018-08-11T12:43:08.427Z,1.00
2018-08-11T12:45:37.109Z,1.40
2018-08-11T12:48:05.928Z,1.10
2018-08-11T12:50:34.582Z,1.40
2018-08-11T12:53:03.233Z,1.20
2018-08-11T12:55:32.081Z,1.13
2018-08-11T12:58:00.741Z,1.07
2018-08-11T13:00:29.395Z,1.43
2018-08-11T13:02:58.054Z,1.30
2018-08-11T13:05:26.707Z,1.20
2018-08-11T13:07:55.537Z,1.10
2018-08-11T13:10:24.165Z,1.50
2018-08-11T13:12:52.789Z,1.20
2018-08-11T13:15:21.453Z,1.30
2018-08-11T13:17:50.099Z,1.33
2018-08-11T13:20:18.945Z,1.33
2018-08-11T13:22:47.569Z,1.10
2018-08-11T13:25:16.188Z,1.60
2018-08-11T13:27:44.850Z,0.97
2018-08-11T13:30:13.494Z,1.40
2018-08-11T13:32:42.308Z,1.37
2018-08-11T13:35:10.936Z,1.30
2018-08-11T13:37:39.565Z,0.97
2018-08-11T13:40:08.264Z,1.10
2018-08-11T13:42:36.971Z,1.20
2018-08-11T13:45:06.108Z,0.80
2018-08-11T13:47:34.733Z,1.17
2018-08-11T13:50:03.448Z,1.10
2018-08-11T13:52:32.134Z,1.10
2018-08-11T13:55:00.823Z,1.23
2018-08-11T13:57:29.521Z,1.37
2018-08-11T13:59:58.154Z,1.30
2018-08-11T14:02:26.775Z,1.00
2018-08-11T14:04:55.468Z,1.57
2018-08-11T14:07:24.193Z,1.00
2018-08-11T14:09:52.807Z,1.07
2018-08-11T14:12:21.454Z,1.80
2018-08-11T14:14:50.119Z,1.37
2018-08-11T14:17:18.775Z,1.20
2018-08-11T14:19:47.388Z,0.90
2018-08-11T14:22:16.059Z,1.00
2018-08-11T14:24:44.717Z,1.40
2018-08-11T14:27:13.425Z,1.30
2018-08-11T14:29:42.045Z,1.27
2018-08-11T14:32:10.706Z,1.13
2018-08-11T14:34:39.384Z,1.10
2018-08-11T14:37:08.081Z,1.13
2018-08-11T14:39:36.685Z,1.10
2018-08-11T14:42:05.424Z,1.10
2018-08-11T14:44:34.170Z,1.10
2018-08-11T14:47:02.798Z,1.30
2018-08-11T14:49:31.569Z,0.93
2018-08-11T14:52:00.243Z,1.70
2018-08-11T14:54:28.860Z,1.37
2018-08-11T14:56:57.527Z,1.40
2018-08-11T14:59:26.175Z,1.20
2018-08-11T15:01:54.870Z,1.50
2018-08-11T15:04:23.554Z,1.50
2018-08-11T15:06:52.247Z,1.30
2018-08-11T15:09:20.909Z,0.97
2018-08-11T15:11:49.537Z,1.10
2018-08-11T15:14:18.207Z,0.90
2018-08-11T15:16:46.846Z,1.40
2018-08-11T15:19:15.457Z,1.20
2018-08-11T15:21:44.207Z,1.07
2018-08-11T15:24:12.825Z,1.23
2018-08-11T15:26:41.614Z,1.23
2018-08-11T15:29:10.241Z,1.37
2018-08-11T15:31:38.873Z,1.73
2018-08-11T15:34:07.519Z,1.50
2018-08-11T15:36:36.131Z,1.50
2018-08-11T15:39:09.163Z,1.70
2018-08-11T15:41:37.824Z,1.67
2018-08-11T15:44:06.782Z,1.10
2018-08-11T15:46:35.534Z,2.00
2018-08-11T15:49:04.273Z,1.43
2018-08-11T15:51:33.177Z,0.97
2018-08-11T15:54:01.820Z,0.93
2018-08-11T15:56:30.449Z,1.10
2018-08-11T15:58:59.107Z,1.33
2018-08-11T16:01:27.815Z,1.10
2018-08-11T16:03:56.531Z,1.50
2018-08-11T16:06:25.162Z,1.83
2018-08-11T16:08:53.784Z,1.13
2018-08-11T16:11:22.445Z,1.20
2018-08-11T16:13:51.098Z,1.57
2018-08-11T16:16:19.787Z,1.30
2018-08-11T16:18:48.401Z,1.00
2018-08-11T16:21:17.023Z,1.50
2018-08-11T16:23:45.672Z,1.23
2018-08-11T16:26:14.285Z,1.33
2018-08-11T16:28:42.933Z,1.40
2018-08-11T16:31:11.573Z,1.70
2018-08-11T16:33:40.204Z,1.30
2018-08-11T16:36:08.901Z,1.20
2018-08-11T16:38:37.549Z,1.43
2018-08-11T16:41:07.033Z,1.40
2018-08-11T16:43:35.652Z,1.30
2018-08-11T16:46:04.337Z,1.30
2018-08-11T16:48:33.013Z,1.10
2018-08-11T16:51:01.662Z,0.77
2018-08-11T16:53:30.767Z,1.43
2018-08-11T16:55:59.425Z,2.17
2018-08-11T16:58:28.049Z,2.10
2018-08-11T17:00:56.723Z,1.20
2018-08-11T17:03:25.374Z,2.13
2018-08-11T17:05:54.128Z,1.67
2018-08-11T17:08:22.703Z,2.10
2018-08-11T17:10:51.365Z,1.80
2018-08-11T17:13:19.984Z,1.63
2018-08-11T17:15:48.597Z,1.60
2018-08-11T17:18:17.249Z,1.20
2018-08-11T17:20:45.928Z,1.47
2018-08-11T17:23:14.556Z,2.93
2018-08-11T17:25:43.177Z,2.37
2018-08-11T17:28:11.789Z,1.20
2018-08-11T17:30:40.466Z,1.67
2018-08-11T17:33:09.101Z,1.37
2018-08-11T17:35:37.780Z,1.47
2018-08-11T17:38:06.861Z,1.40
2018-08-11T17:40:35.469Z,1.43
2018-08-11T17:43:04.299Z,1.73
2018-08-11T17:45:32.964Z,2.57
2018-08-11T17:48:01.879Z,1.50
2018-08-11T17:50:30.502Z,1.73
2018-08-11T17:52:59.402Z,1.67
2018-08-11T17:55:28.224Z,1.43
2018-08-11T17:57:57.001Z,1.53
2018-08-11T18:00:25.709Z,1.87
2018-08-11T18:02:54.320Z,2.20
2018-08-11T18:05:23.064Z,1.50
2018-08-11T18:07:51.725Z,1.60
2018-08-11T18:10:20.418Z,1.40
2018-08-11T18:12:49.123Z,1.67
2018-08-11T18:15:17.753Z,1.70
2018-08-11T18:17:46.410Z,2.40
2018-08-11T18:20:15.317Z,1.87
2018-08-11T18:22:43.958Z,2.07
2018-08-11T18:25:12.585Z,1.77
2018-08-11T18:27:41.285Z,2.23
2018-08-11T18:30:10.359Z,1.97
2018-08-11T18:32:39.363Z,1.73
2018-08-11T18:35:09.284Z,2.00
2018-08-11T18:37:37.933Z,1.80
2018-08-11T18:40:06.726Z,2.17
2018-08-11T18:42:35.392Z,2.10
2018-08-11T18:45:04.825Z,1.83
2018-08-11T18:47:33.522Z,1.53
2018-08-11T18:50:03.361Z,1.50
2018-08-11T18:52:32.077Z,1.90
2018-08-11T18:55:00.916Z,4.27
2018-08-11T18:57:29.881Z,2.57
2018-08-11T18:59:58.652Z,3.37
2018-08-11T19:02:27.336Z,5.73
2018-08-11T19:04:56.098Z,4.27
2018-08-11T19:07:24.781Z,3.60
2018-08-11T19:09:53.461Z,3.90
2018-08-11T19:12:22.082Z,4.13
2018-08-11T19:14:57.501Z,3.50
2018-08-11T19:17:26.161Z,3.50
2018-08-11T19:19:54.920Z,4.97
2018-08-11T19:22:23.570Z,2.87
2018-08-11T19:24:52.235Z,2.30
2018-08-11T19:27:20.972Z,2.83
2018-08-11T19:29:49.690Z,2.40
2018-08-11T19:32:18.347Z,2.20
2018-08-11T19:34:47.019Z,2.10
2018-08-11T19:37:15.674Z,2.17
2018-08-11T19:39:44.399Z,2.53
2018-08-11T19:42:13.209Z,2.50
2018-08-11T19:44:41.870Z,2.23
2018-08-11T19:47:10.590Z,1.90
2018-08-11T19:49:39.289Z,2.20
2018-08-11T19:52:08.539Z,2.47
2018-08-11T19:54:37.353Z,2.40
2018-08-11T19:57:06.075Z,2.83
2018-08-11T19:59:34.941Z,3.20
2018-08-11T20:02:03.761Z,3.20
2018-08-11T20:04:32.406Z,3.20
2018-08-11T20:07:01.882Z,3.03
2018-08-11T20:09:30.501Z,3.03
2018-08-11T20:11:59.129Z,3.20
2018-08-11T20:14:27.825Z,3.57
2018-08-11T20:16:56.524Z,3.13
2018-08-11T20:19:25.455Z,3.37
2018-08-11T20:21:54.020Z,2.80
2018-08-11T20:24:22.699Z,2.93
2018-08-11T20:26:51.346Z,2.93
2018-08-11T20:29:20.095Z,2.67
2018-08-11T20:31:49.066Z,2.67
2018-08-11T20:34:17.709Z,2.47
2018-08-11T20:36:46.404Z,2.30
2018-08-11T20:39:15.141Z,2.60
2018-08-11T20:41:43.893Z,2.40
2018-08-11T20:44:12.577Z,2.37
2018-08-11T20:46:41.280Z,2.70
2018-08-11T20:49:10.017Z,2.50
2018-08-11T20:51:38.827Z,1.93
2018-08-11T20:54:07.792Z,2.40
2018-08-11T20:56:36.457Z,2.37
2018-08-11T20:59:06.022Z,3.23
2018-08-11T21:01:34.741Z,2.67
2018-08-11T21:04:03.610Z,2.20
2018-08-11T21:06:32.312Z,3.37
2018-08-11T21:09:01.112Z,3.00
2018-08-11T21:11:29.814Z,3.23
2018-08-11T21:13:58.504Z,3.37
2018-08-11T21:16:27.180Z,2.23
2018-08-11T21:18:55.815Z,2.47
2018-08-11T21:21:24.534Z,2.40
2018-08-11T21:23:53.283Z,2.67
2018-08-11T21:26:21.925Z,2.13
2018-08-11T21:28:50.607Z,2.40
2018-08-11T21:31:19.310Z,2.63
2018-08-11T21:33:48.029Z,2.47
2018-08-11T21:36:16.837Z,2.60
2018-08-11T21:38:45.537Z,3.37
2018-08-11T21:41:14.198Z,3.17
2018-08-11T21:43:43.206Z,2.90
2018-08-11T21:46:11.882Z,3.73
2018-08-11T21:48:40.886Z,3.40
2018-08-11T21:51:09.545Z,3.53
2018-08-11T21:53:38.221Z,3.90
2018-08-11T21:56:07.054Z,4.10
2018-08-11T21:58:35.714Z,4.10
2018-08-11T22:01:13.964Z,4.13
2018-08-11T22:03:43.533Z,6.73
2018-08-11T22:06:12.238Z,6.83
2018-08-11T22:08:41.124Z,5.30
2018-08-11T22:11:09.860Z,4.53
2018-08-11T22:13:38.571Z,4.60
2018-08-11T22:16:07.772Z,4.33
2018-08-11T22:18:36.924Z,10.23
2018-08-11T22:21:05.648Z,16.20
2018-08-11T22:23:34.624Z,16.50
2018-08-11T22:26:03.306Z,20.17
2018-08-11T22:28:32.002Z,16.33
2018-08-11T22:31:00.760Z,15.63
2018-08-11T22:33:29.468Z,122.53
2018-08-11T22:35:58.207Z,74.67
2018-08-11T22:38:26.863Z,35.57
2018-08-11T22:40:55.538Z,13.60
2018-08-11T22:43:24.309Z,11.67
2018-08-11T22:45:53.005Z,10.53
2018-08-11T22:48:21.734Z,9.60
2018-08-11T22:50:50.389Z,10.43
2018-08-11T22:53:19.109Z,11.73
2018-08-11T22:55:47.835Z,10.57
2018-08-11T22:58:16.500Z,7.17
2018-08-11T23:00:45.181Z,9.17
2018-08-11T23:03:13.896Z,5.97
2018-08-11T23:05:42.581Z,5.83
2018-08-11T23:08:11.271Z,5.93
2018-08-11T23:10:39.945Z,4.93
2018-08-11T23:13:08.672Z,6.00
2018-08-11T23:15:37.416Z,5.33
2018-08-11T23:18:06.313Z,4.80
2018-08-11T23:20:34.941Z,4.90
2018-08-11T23:23:04.188Z,4.43
2018-08-11T23:25:32.880Z,3.97
2018-08-11T23:28:01.551Z,3.70
2018-08-11T23:30:30.253Z,3.90
2018-08-11T23:32:58.889Z,4.00
2018-08-11T23:35:27.761Z,3.63
2018-08-11T23:37:56.458Z,3.53
2018-08-11T23:40:25.103Z,4.00
2018-08-11T23:42:53.769Z,3.47
2018-08-11T23:45:22.393Z,4.93
2018-08-11T23:47:51.056Z,3.77
2018-08-11T23:50:19.762Z,3.63
2018-08-11T23:52:48.421Z,3.37
2018-08-11T23:55:17.083Z,3.33
2018-08-11T23:57:45.779Z,3.27
